Wheeler Sack Army Air Field
KGTB : now visible

Airfield :











YOU CAN JOIN US ON...

 
LOGIN :

Register | Disclaimer

   EN    FR    IT 

 









Legend :    VFR   Marginal VFR   IFR   Intensive IFR   Very Intensive IFR
Visi :
Ceiling :
>= 8 km
>= 3000ft
5 to 8 km
1000 to 3000 ft
1500m to 5 km
500 to 1000 ft
800 to 1500m
200 to 500 ft
< 800m
< 200 ft
Symbols :   Thunderstorms  Fog  Heavy snow  Heavy precipitations  Wind > 20 kt






- Airport Elevation : 688 ft


KGTB - Wheeler Sack Army Air Field

CURRENT METAR :
  • 120256Z AUTO 28009KT 10SM CLR M08/M14 A3038 RMK AO2 SLP300 T10781140 52045

EXPIRED METARs :
  • 120156Z AUTO 27008G14KT 10SM CLR M07/M13 A3034 RMK AO2 SLP287 T10731128
  • 120056Z 28014G23KT 10SM CLR M06/M12 A3030 RMK AO2A PK WND 27027/38 PRESRR SLP274 T10651120

TAF TAF KGTB
Valid from the 12 at 01:00 until the 13 at 07:00 UTC


120100Z 1201/1307 28012G18KT 9999 BKN030 620302 QNH3023INS
BECMG 1215/1216 23010G15KT 9999 BKN030 620301 QNH3052INS
BECMG 1219/1220 18009KT 9999 FEW030 BKN060 620609 QNH3030INS TXM02/1218Z TNM08/1211Z



MET'MAP, your aeronautical weather chart ! - Copyright ORBIFLY December 2007 - Disclaimer

ORBIFLY MET'MAP TEAM :

Programming & Development : Alexandra Zaïnal
Concept & original design : Baudouin d'Aumeries
Assistance for programming : Marc-Olivier Méhu
Technical & hardware support : Manuel Goepfert

Contact : metmap@orbifly.com




SOURCES & CREDITS :

   NOAA       Earth
Advisory